Terminal Aerodrome Forecast
Issued by NWS Burlington, VT

Home | Current Version | Previous Version | Text Only | Print | Product List | Glossary On
Versions: 1 2 3 4 5 6 7 8 9 10 11 12
000
FTUS41 KBTV 221700
TAFBTV
TAF
KBTV 221720Z 2218/2318 21008KT P6SM SCT040
     FM230100 18010KT P6SM SKC
     FM231400 20012G22KT P6SM FEW100
     FM231700 22011G18KT 6SM -SHRA BR BKN045=

USA.gov is the U.S. government's official web portal to all federal, state and local government web resources and services.